Saint Eustatius, Netherlands Antilles
Current Conditions -  °F | °C
As of 9:00 PM on Friday 28 Nov 2014 (Local Time) from TKPK Reporting Station
Few Clouds Few Clouds  
Wind Chill: 77°   Ceiling: Unl
Heat Index: 78°   Visibility: 6mi
Dew Point: 73°   Wind: 0mph
Humidity: 89%   Direction: NA
Pressure: 29.97"   Gusts: NA
Location:  17.5°N, 62.97°W
Report Text: TKPK 290100Z 00000KT 9999 FEW022 25/23 Q1015
Loading
Personal Weather Stations






























Interactive Weather Map New forecast layout! Learn more

10-Day Weather Forecast

Advertisements
Track Severe Weather on mobile